Time;durP1;ratioP1;P1;durP2;ratioP2;P2;SDS_P1;SDS_P2;PMS_P1;PMS_P2;Temp;Humidity;BMP_temperature;BMP_pressure;BME280_temperature;BME280_humidity;BME280_pressure;Samples;Min_cycle;Max_cycle;Signal;HPM_P1;HPM_P2
2023/11/06 00:00:17;;;;;;;;;;;12.30;99.90;;;;;;4901762;29;19931;-78
2023/11/06 00:02:43;;;;;;;;;;;12.10;99.90;;;;;;4921595;29;19915;-78
2023/11/06 00:05:08;;;;;;;;;;;12.00;99.90;;;;;;4922895;29;20004;-77
2023/11/06 00:07:34;;;;;;;;;;;12.00;99.90;;;;;;4920330;29;19959;-78
2023/11/06 00:10:00;;;;;;;;;;;11.90;99.90;;;;;;4921168;29;19907;-77
2023/11/06 00:12:26;;;;;;;;;;;11.80;99.90;;;;;;4903813;29;19912;-78
2023/11/06 00:14:52;;;;;;;;;;;11.70;99.90;;;;;;4881723;29;19912;-78
2023/11/06 00:17:18;;;;;;;;;;;11.70;99.90;;;;;;4883556;29;20339;-77
2023/11/06 00:19:43;;;;;;;;;;;11.80;99.90;;;;;;4917383;29;19970;-78
2023/11/06 00:22:10;;;;;;;;;;;11.80;99.90;;;;;;4919836;29;19915;-78
2023/11/06 00:24:36;;;;;;;;;;;11.80;99.90;;;;;;4920907;29;19907;-78
2023/11/06 00:27:01;;;;;;;;;;;11.90;99.90;;;;;;4933331;29;19919;-76
2023/11/06 00:29:29;;;;;;;;;;;11.80;99.90;;;;;;4920199;29;19914;-78
2023/11/06 00:31:55;;;;;;;;;;;11.80;99.90;;;;;;4920063;29;19913;-77
2023/11/06 00:34:20;;;;;;;;;;;11.60;99.90;;;;;;4926622;29;20013;-77
2023/11/06 00:36:46;;;;;;;;;;;11.70;99.90;;;;;;4920435;29;19911;-77
2023/11/06 00:39:12;;;;;;;;;;;11.70;99.90;;;;;;4920426;29;20355;-77
2023/11/06 00:41:40;;;;;;;;;;;11.80;99.90;;;;;;4927156;29;20062;-77
2023/11/06 00:44:05;;;;;;;;;;;11.80;99.90;;;;;;4919998;29;19907;-78
2023/11/06 00:46:31;;;;;;;;;;;11.90;99.90;;;;;;4919778;29;19914;-77
2023/11/06 00:48:56;;;;;;;;;;;11.90;99.90;;;;;;4921349;29;19911;-77
2023/11/06 00:51:22;;;;;;;;;;;11.90;99.90;;;;;;4919736;29;19997;-77
2023/11/06 00:53:47;;;;;;;;;;;11.80;99.90;;;;;;4919609;29;19994;-77
2023/11/06 00:56:13;;;;;;;;;;;11.80;99.90;;;;;;4931708;29;19919;-77
2023/11/06 00:58:39;;;;;;;;;;;11.80;99.90;;;;;;4919558;29;20001;-77
2023/11/06 01:01:05;;;;;;;;;;;11.70;99.90;;;;;;4921268;28;20005;-77
2023/11/06 01:03:32;;;;;;;;;;;11.70;99.90;;;;;;4939659;29;19914;-77
2023/11/06 01:05:58;;;;;;;;;;;11.70;99.90;;;;;;4937766;29;19913;-77
2023/11/06 01:08:24;;;;;;;;;;;11.70;99.90;;;;;;4941947;29;19911;-77
2023/11/06 01:10:49;;;;;;;;;;;11.70;99.90;;;;;;4936105;29;19953;-77
2023/11/06 01:13:15;;;;;;;;;;;11.70;99.90;;;;;;4901889;29;19918;-77
2023/11/06 01:15:42;;;;;;;;;;;11.70;99.90;;;;;;4925545;29;19981;-77
2023/11/06 01:18:07;;;;;;;;;;;11.70;99.90;;;;;;4928810;29;19911;-77
2023/11/06 01:20:33;;;;;;;;;;;11.70;99.90;;;;;;4899450;29;19918;-77
2023/11/06 01:22:59;;;;;;;;;;;11.80;99.90;;;;;;4876482;29;19991;-77
2023/11/06 01:25:24;;;;;;;;;;;11.80;99.90;;;;;;4899038;29;19908;-77
2023/11/06 01:27:50;;;;;;;;;;;11.80;99.90;;;;;;4899912;29;19913;-77
2023/11/06 01:30:15;;;;;;;;;;;11.90;99.90;;;;;;4908289;29;20294;-77
2023/11/06 01:32:41;;;;;;;;;;;12.00;99.90;;;;;;4900106;29;19907;-77
2023/11/06 01:35:06;;;;;;;;;;;12.00;99.90;;;;;;4900108;29;19998;-77
2023/11/06 01:37:32;;;;;;;;;;;12.10;99.90;;;;;;4915054;29;19903;-77
2023/11/06 01:39:57;;;;;;;;;;;12.20;99.90;;;;;;4900267;29;19914;-77
2023/11/06 01:42:23;;;;;;;;;;;12.30;99.90;;;;;;4899965;29;19907;-77
2023/11/06 01:44:48;;;;;;;;;;;12.40;99.90;;;;;;4899727;29;20423;-78
2023/11/06 01:47:14;;;;;;;;;;;12.40;99.90;;;;;;4915251;29;19911;-77
2023/11/06 01:49:40;;;;;;;;;;;12.40;99.90;;;;;;4900405;29;19907;-78
2023/11/06 01:52:07;;;;;;;;;;;12.50;99.90;;;;;;4899697;29;19908;-77
2023/11/06 01:54:33;;;;;;;;;;;12.50;99.90;;;;;;4910830;29;19939;-77
2023/11/06 01:57:00;;;;;;;;;;;12.50;99.90;;;;;;4899739;29;20319;-77
2023/11/06 01:59:25;;;;;;;;;;;12.50;99.90;;;;;;4899823;29;20377;-77
2023/11/06 02:01:55;;;;;;;;;;;12.50;99.90;;;;;;4888896;29;19957;-77
2023/11/06 02:04:21;;;;;;;;;;;12.60;99.90;;;;;;4882761;29;19912;-77
2023/11/06 02:06:48;;;;;;;;;;;12.50;99.90;;;;;;4899653;29;19958;-78
2023/11/06 02:09:13;;;;;;;;;;;12.50;99.90;;;;;;4921185;29;19900;-77
2023/11/06 02:11:39;;;;;;;;;;;12.40;99.90;;;;;;4880542;29;19989;-77
2023/11/06 02:14:05;;;;;;;;;;;12.30;99.90;;;;;;4898824;29;19935;-77
2023/11/06 02:16:31;;;;;;;;;;;12.20;99.90;;;;;;4908302;29;19919;-77
2023/11/06 02:18:57;;;;;;;;;;;12.20;99.90;;;;;;4889773;29;19915;-77
2023/11/06 02:21:22;;;;;;;;;;;12.20;99.90;;;;;;4898358;29;20446;-77
2023/11/06 02:23:49;;;;;;;;;;;12.30;99.90;;;;;;4901014;29;19915;-77
2023/11/06 02:26:14;;;;;;;;;;;12.40;99.90;;;;;;4898116;29;19959;-77
2023/11/06 02:28:40;;;;;;;;;;;12.40;99.90;;;;;;4899055;29;19911;-77
2023/11/06 02:31:05;;;;;;;;;;;12.50;99.90;;;;;;4899815;29;20387;-77
2023/11/06 02:33:31;;;;;;;;;;;12.40;99.90;;;;;;4898959;29;19998;-77
2023/11/06 02:35:56;;;;;;;;;;;12.20;99.90;;;;;;4899192;29;19915;-77
2023/11/06 02:38:22;;;;;;;;;;;12.00;99.90;;;;;;4906469;29;19919;-77
2023/11/06 02:40:47;;;;;;;;;;;11.90;99.90;;;;;;4899239;29;20391;-77
2023/11/06 02:43:13;;;;;;;;;;;11.70;99.90;;;;;;4899169;29;19943;-77
2023/11/06 02:45:39;;;;;;;;;;;11.60;99.90;;;;;;4899164;29;20308;-77
2023/11/06 02:48:04;;;;;;;;;;;11.70;99.90;;;;;;4897463;29;20395;-77
2023/11/06 02:50:31;;;;;;;;;;;11.60;99.90;;;;;;4900378;29;19911;-78
2023/11/06 02:52:56;;;;;;;;;;;11.60;99.90;;;;;;4898679;29;19915;-77
2023/11/06 02:55:22;;;;;;;;;;;11.50;99.90;;;;;;4899162;29;19936;-78
2023/11/06 02:57:47;;;;;;;;;;;11.40;99.90;;;;;;4901811;29;19954;-77
2023/11/06 03:00:13;;;;;;;;;;;11.50;99.90;;;;;;4897620;29;19908;-76
2023/11/06 03:02:39;;;;;;;;;;;11.50;99.90;;;;;;4899131;29;20038;-77
2023/11/06 03:05:06;;;;;;;;;;;11.40;99.90;;;;;;4900744;29;20005;-77
2023/11/06 03:07:32;;;;;;;;;;;11.30;99.90;;;;;;4898469;29;19980;-77
2023/11/06 03:09:58;;;;;;;;;;;11.20;99.90;;;;;;4896803;29;19955;-77
2023/11/06 03:12:24;;;;;;;;;;;11.20;99.90;;;;;;4894734;29;19983;-78
2023/11/06 03:14:49;;;;;;;;;;;11.20;99.90;;;;;;4881857;29;19919;-77
2023/11/06 03:17:15;;;;;;;;;;;11.20;99.90;;;;;;4880316;29;20276;-78
2023/11/06 03:19:40;;;;;;;;;;;11.40;99.90;;;;;;4903367;29;19907;-77
2023/11/06 03:22:06;;;;;;;;;;;11.40;99.90;;;;;;4896867;29;19950;-78
2023/11/06 03:24:32;;;;;;;;;;;11.50;99.90;;;;;;4899376;29;19958;-78
2023/11/06 03:26:58;;;;;;;;;;;11.50;99.90;;;;;;4905251;29;19983;-77
2023/11/06 03:29:23;;;;;;;;;;;11.50;99.90;;;;;;4902320;29;19907;-77
2023/11/06 03:31:51;;;;;;;;;;;11.60;99.90;;;;;;4902673;29;20355;-77
2023/11/06 03:34:17;;;;;;;;;;;11.60;99.90;;;;;;4911629;29;19903;-77
2023/11/06 03:36:43;;;;;;;;;;;11.70;99.90;;;;;;4902637;29;19958;-77
2023/11/06 03:39:09;;;;;;;;;;;11.70;99.90;;;;;;4902652;29;19998;-77
2023/11/06 03:41:34;;;;;;;;;;;11.80;99.90;;;;;;4907254;29;19896;-77
2023/11/06 03:44:00;;;;;;;;;;;11.90;99.90;;;;;;4904704;29;20389;-77
2023/11/06 03:46:28;;;;;;;;;;;12.00;99.90;;;;;;4900805;29;20299;-77
2023/11/06 03:48:54;;;;;;;;;;;12.10;99.90;;;;;;4915589;29;19902;-77
2023/11/06 03:51:19;;;;;;;;;;;12.10;99.90;;;;;;4906218;29;19915;-77
2023/11/06 03:53:45;;;;;;;;;;;12.20;99.90;;;;;;4900005;29;20367;-77
2023/11/06 03:56:10;;;;;;;;;;;12.10;99.90;;;;;;4903762;29;19915;-76
2023/11/06 03:58:36;;;;;;;;;;;11.90;99.90;;;;;;4900491;29;19907;-77
2023/11/06 04:01:02;;;;;;;;;;;11.80;99.90;;;;;;4901739;29;20363;-77
2023/11/06 04:03:28;;;;;;;;;;;11.60;99.90;;;;;;4886624;29;19915;-77
2023/11/06 04:05:54;;;;;;;;;;;11.50;99.90;;;;;;4901827;29;20371;-77
2023/11/06 04:08:20;;;;;;;;;;;11.50;99.90;;;;;;4901695;29;19934;-77
2023/11/06 04:10:45;;;;;;;;;;;11.40;99.90;;;;;;4911029;29;19895;-77
2023/11/06 04:13:11;;;;;;;;;;;11.30;99.90;;;;;;4896889;29;19962;-77
2023/11/06 04:15:37;;;;;;;;;;;11.30;99.90;;;;;;4920684;29;19918;-77
2023/11/06 04:18:03;;;;;;;;;;;11.30;99.90;;;;;;4918949;29;19979;-77
2023/11/06 04:20:29;;;;;;;;;;;11.30;99.90;;;;;;4900681;29;19982;-77
2023/11/06 04:22:54;;;;;;;;;;;11.50;99.90;;;;;;4901124;29;19907;-77
2023/11/06 04:25:20;;;;;;;;;;;11.60;99.90;;;;;;4904381;29;19911;-77
2023/11/06 04:27:45;;;;;;;;;;;11.60;99.90;;;;;;4900905;29;19907;-77
2023/11/06 04:30:11;;;;;;;;;;;11.60;99.90;;;;;;4901411;29;19907;-78
2023/11/06 04:32:37;;;;;;;;;;;11.60;99.90;;;;;;4909897;29;19900;-78
2023/11/06 04:35:03;;;;;;;;;;;11.60;99.90;;;;;;4907597;29;20013;-77
2023/11/06 04:37:28;;;;;;;;;;;11.60;99.90;;;;;;4899204;29;20411;-76
2023/11/06 04:39:53;;;;;;;;;;;11.60;99.90;;;;;;4902312;29;19915;-77
2023/11/06 04:42:19;;;;;;;;;;;11.70;99.90;;;;;;4903676;29;19997;-77
2023/11/06 04:44:45;;;;;;;;;;;11.50;99.90;;;;;;4901062;29;19907;-78
2023/11/06 04:47:10;;;;;;;;;;;11.50;99.90;;;;;;4905520;29;19942;-77
2023/11/06 04:49:36;;;;;;;;;;;11.40;99.90;;;;;;4903910;29;20014;-77
2023/11/06 04:52:01;;;;;;;;;;;11.30;99.90;;;;;;4901367;29;19914;-77
2023/11/06 04:54:27;;;;;;;;;;;11.20;99.90;;;;;;4901427;29;19911;-77
2023/11/06 04:56:52;;;;;;;;;;;11.10;99.90;;;;;;4903672;29;19918;-77
2023/11/06 04:59:18;;;;;;;;;;;11.10;99.90;;;;;;4900839;29;19939;-77
2023/11/06 05:01:43;;;;;;;;;;;11.10;99.90;;;;;;4893646;29;20363;-77
2023/11/06 05:04:09;;;;;;;;;;;11.20;99.90;;;;;;4901348;29;19912;-77
2023/11/06 05:06:35;;;;;;;;;;;11.20;99.90;;;;;;4899878;29;19915;-77
2023/11/06 05:09:00;;;;;;;;;;;11.20;99.90;;;;;;4902008;29;20442;-78
2023/11/06 05:11:26;;;;;;;;;;;11.20;99.90;;;;;;4897328;29;19915;-77
2023/11/06 05:13:54;;;;;;;;;;;11.20;99.90;;;;;;4865351;29;19911;-78
2023/11/06 05:16:20;;;;;;;;;;;11.10;99.90;;;;;;4895742;29;19920;-77
2023/11/06 05:18:46;;;;;;;;;;;11.20;99.90;;;;;;4899165;29;19922;-77
2023/11/06 05:21:11;;;;;;;;;;;11.30;99.90;;;;;;4918370;29;20434;-77
2023/11/06 05:23:38;;;;;;;;;;;11.30;99.90;;;;;;4926933;29;19919;-77
2023/11/06 05:26:04;;;;;;;;;;;11.30;99.90;;;;;;4918063;29;19907;-78
2023/11/06 05:28:30;;;;;;;;;;;11.40;99.90;;;;;;4920837;29;20393;-77
2023/11/06 05:30:55;;;;;;;;;;;11.50;99.90;;;;;;4921039;29;19911;-77
2023/11/06 05:33:21;;;;;;;;;;;11.50;99.90;;;;;;4919515;29;19918;-77
2023/11/06 05:35:46;;;;;;;;;;;11.60;99.90;;;;;;4919204;29;19907;-77
2023/11/06 05:38:12;;;;;;;;;;;11.70;99.90;;;;;;4901676;29;19918;-78
2023/11/06 05:40:37;;;;;;;;;;;11.80;99.90;;;;;;4918865;29;19911;-77
2023/11/06 05:43:03;;;;;;;;;;;11.80;99.90;;;;;;4922248;29;20394;-77
2023/11/06 05:45:28;;;;;;;;;;;11.70;99.90;;;;;;4918197;29;19911;-77
2023/11/06 05:47:55;;;;;;;;;;;11.70;99.90;;;;;;4918008;29;19918;-77
2023/11/06 05:50:20;;;;;;;;;;;11.80;99.90;;;;;;4929559;29;19954;-77
2023/11/06 05:52:46;;;;;;;;;;;11.70;99.90;;;;;;4917344;29;19952;-78
2023/11/06 05:55:12;;;;;;;;;;;11.60;99.90;;;;;;4917513;29;20291;-77
2023/11/06 05:57:37;;;;;;;;;;;11.50;99.90;;;;;;4920163;29;19907;-77
2023/11/06 06:00:03;;;;;;;;;;;11.40;99.90;;;;;;4904517;29;20029;-77
2023/11/06 06:02:29;;;;;;;;;;;11.40;99.90;;;;;;4909875;29;19965;-77
2023/11/06 06:04:54;;;;;;;;;;;11.40;99.90;;;;;;4908243;29;19916;-77
2023/11/06 06:07:20;;;;;;;;;;;11.30;99.90;;;;;;4898210;29;20006;-78
2023/11/06 06:09:59;;;;;;;;;;;11.30;99.90;;;;;;5070526;28;19958;-81
2023/11/06 06:12:24;;;;;;;;;;;11.30;99.90;;;;;;5056357;28;20015;-73
2023/11/06 06:14:50;;;;;;;;;;;11.30;99.90;;;;;;5051748;28;19944;-73
2023/11/06 06:17:16;;;;;;;;;;;11.40;99.90;;;;;;5050532;28;19916;-72
2023/11/06 06:19:42;;;;;;;;;;;11.40;99.90;;;;;;5062790;28;20007;-81
2023/11/06 06:22:07;;;;;;;;;;;11.40;99.90;;;;;;5056766;28;19913;-81
2023/11/06 06:24:33;;;;;;;;;;;11.50;99.90;;;;;;5069432;28;19912;-81
2023/11/06 06:26:58;;;;;;;;;;;11.50;99.90;;;;;;5066834;28;19945;-73
2023/11/06 06:29:24;;;;;;;;;;;11.60;99.90;;;;;;5054309;28;19913;-73
2023/11/06 06:31:53;;;;;;;;;;;11.80;99.90;;;;;;5050147;28;19909;-73
2023/11/06 06:34:20;;;;;;;;;;;12.00;99.90;;;;;;5048894;28;19913;-80
2023/11/06 06:36:45;;;;;;;;;;;12.00;99.90;;;;;;5056002;28;19909;-80
2023/11/06 06:39:11;;;;;;;;;;;11.80;99.90;;;;;;5046452;28;20355;-73
2023/11/06 06:41:36;;;;;;;;;;;11.70;99.90;;;;;;5048615;28;20431;-81
2023/11/06 06:44:02;;;;;;;;;;;11.70;99.90;;;;;;5058135;28;19913;-73
2023/11/06 06:46:27;;;;;;;;;;;11.80;99.90;;;;;;5069561;28;20299;-80
2023/11/06 06:48:53;;;;;;;;;;;11.80;99.90;;;;;;5068840;28;19916;-81
2023/11/06 06:51:18;;;;;;;;;;;11.70;99.90;;;;;;5069237;28;19916;-79
2023/11/06 06:53:46;;;;;;;;;;;11.70;99.90;;;;;;5055602;28;20010;-73
2023/11/06 06:56:11;;;;;;;;;;;11.70;99.90;;;;;;5048130;28;19917;-73
2023/11/06 06:58:37;;;;;;;;;;;11.60;99.90;;;;;;5044402;28;20051;-79
2023/11/06 07:01:03;;;;;;;;;;;11.60;99.90;;;;;;5046847;28;19909;-80
2023/11/06 07:03:29;;;;;;;;;;;11.70;99.90;;;;;;5058537;28;19913;-79
2023/11/06 07:05:54;;;;;;;;;;;11.80;99.90;;;;;;5053384;28;19924;-72
2023/11/06 07:08:20;;;;;;;;;;;11.80;99.90;;;;;;5048079;28;19932;-73
2023/11/06 07:10:47;;;;;;;;;;;11.80;99.90;;;;;;5048404;28;20384;-72
2023/11/06 07:13:12;;;;;;;;;;;11.90;99.90;;;;;;5048145;28;19909;-80
2023/11/06 07:15:38;;;;;;;;;;;12.00;99.90;;;;;;5038707;28;19913;-79
2023/11/06 07:18:06;;;;;;;;;;;12.10;99.90;;;;;;5039295;28;19908;-72
2023/11/06 07:20:31;;;;;;;;;;;12.20;99.90;;;;;;5041281;28;19943;-79
2023/11/06 07:22:57;;;;;;;;;;;12.40;99.90;;;;;;5037382;28;20292;-72
2023/11/06 07:25:23;;;;;;;;;;;12.40;99.90;;;;;;5040346;28;19963;-72
2023/11/06 07:27:49;;;;;;;;;;;12.50;99.90;;;;;;5031161;28;19917;-80
2023/11/06 07:30:14;;;;;;;;;;;12.50;99.90;;;;;;5051391;28;19920;-73
2023/11/06 07:32:41;;;;;;;;;;;12.80;99.90;;;;;;5033750;28;20381;-73
2023/11/06 07:35:09;;;;;;;;;;;12.90;99.90;;;;;;5032539;28;19921;-79
2023/11/06 07:37:35;;;;;;;;;;;12.90;99.90;;;;;;5034703;28;19967;-78
2023/11/06 07:40:00;;;;;;;;;;;12.90;99.90;;;;;;5039409;28;19921;-79
2023/11/06 07:42:26;;;;;;;;;;;13.20;99.90;;;;;;5036251;28;19917;-72
2023/11/06 07:44:51;;;;;;;;;;;13.30;99.90;;;;;;5034940;28;19996;-72
2023/11/06 07:47:17;;;;;;;;;;;13.50;99.90;;;;;;5052228;28;20020;-72
2023/11/06 07:49:42;;;;;;;;;;;13.80;99.90;;;;;;5041562;28;19920;-72
2023/11/06 07:52:09;;;;;;;;;;;13.80;99.90;;;;;;5031824;28;19996;-79
2023/11/06 07:54:39;;;;;;;;;;;13.50;99.90;;;;;;5031006;28;19920;-78
2023/11/06 07:57:05;;;;;;;;;;;13.40;99.90;;;;;;5037836;28;19913;-75
2023/11/06 07:59:34;;;;;;;;;;;13.30;99.90;;;;;;5034256;28;19917;-75
2023/11/06 08:02:10;;;;;;;;;;;13.20;99.90;;;;;;5030970;28;20004;-78
2023/11/06 08:04:37;;;;;;;;;;;13.20;99.90;;;;;;5030688;28;19953;-78
2023/11/06 08:07:03;;;;;;;;;;;13.20;99.90;;;;;;5034627;28;19913;-78
2023/11/06 08:09:29;;;;;;;;;;;13.30;99.90;;;;;;5032633;28;20261;-74
2023/11/06 08:12:05;;;;;;;;;;;13.50;99.90;;;;;;5033791;28;20384;-73
2023/11/06 08:14:37;;;;;;;;;;;13.50;99.90;;;;;;5031286;28;19927;-79
2023/11/06 08:17:02;;;;;;;;;;;13.40;99.90;;;;;;5031494;28;19913;-78
2023/11/06 08:19:28;;;;;;;;;;;13.10;99.90;;;;;;5035079;28;20012;-72
2023/11/06 08:21:53;;;;;;;;;;;13.00;99.90;;;;;;5032186;28;19917;-73
2023/11/06 08:24:19;;;;;;;;;;;12.90;99.90;;;;;;5033343;28;19913;-72
2023/11/06 08:26:45;;;;;;;;;;;12.90;99.90;;;;;;5030049;28;20422;-72
2023/11/06 08:29:11;;;;;;;;;;;12.80;99.90;;;;;;5037787;28;20421;-73
2023/11/06 08:31:37;;;;;;;;;;;12.80;99.90;;;;;;5044877;28;20434;-77
2023/11/06 08:34:03;;;;;;;;;;;12.70;99.90;;;;;;5032568;28;19936;-77
2023/11/06 08:36:29;;;;;;;;;;;12.70;99.90;;;;;;5032230;28;19917;-73
2023/11/06 08:38:54;;;;;;;;;;;12.70;99.90;;;;;;5032849;28;19952;-73
2023/11/06 08:41:20;;;;;;;;;;;12.70;99.90;;;;;;5031646;28;19956;-72
2023/11/06 08:43:46;;;;;;;;;;;12.70;99.90;;;;;;5037497;28;19924;-77
2023/11/06 08:46:12;;;;;;;;;;;12.80;99.90;;;;;;5030483;28;19913;-76
2023/11/06 08:48:40;;;;;;;;;;;12.90;99.90;;;;;;5046983;28;19921;-72
2023/11/06 08:51:06;;;;;;;;;;;13.10;99.90;;;;;;5031269;28;19921;-73
2023/11/06 08:53:31;;;;;;;;;;;13.50;99.90;;;;;;5026659;28;19917;-76
2023/11/06 08:55:57;;;;;;;;;;;14.10;99.90;;;;;;5031331;28;20463;-77
2023/11/06 08:58:25;;;;;;;;;;;14.50;99.90;;;;;;5031170;28;19917;-76
2023/11/06 09:00:50;;;;;;;;;;;14.80;99.90;;;;;;5033555;28;19913;-73
2023/11/06 09:03:16;;;;;;;;;;;14.80;99.90;;;;;;5039597;28;19955;-77
2023/11/06 09:05:41;;;;;;;;;;;14.50;99.90;;;;;;5031882;28;19921;-77
2023/11/06 09:08:07;;;;;;;;;;;13.70;99.90;;;;;;5031399;28;19929;-73
2023/11/06 09:10:32;;;;;;;;;;;12.70;99.90;;;;;;5031011;28;20289;-77
2023/11/06 09:12:58;;;;;;;;;;;12.60;99.90;;;;;;5033881;28;19924;-73
2023/11/06 09:15:24;;;;;;;;;;;12.90;99.90;;;;;;5026252;28;20375;-73
2023/11/06 09:17:49;;;;;;;;;;;13.40;99.90;;;;;;5031166;28;19920;-74
2023/11/06 09:20:15;;;;;;;;;;;13.80;99.90;;;;;;5038628;28;19914;-78
2023/11/06 09:22:41;;;;;;;;;;;14.10;99.90;;;;;;5040114;28;20319;-78
2023/11/06 09:25:08;;;;;;;;;;;13.90;99.90;;;;;;5036727;28;19956;-78
2023/11/06 09:27:34;;;;;;;;;;;13.70;99.90;;;;;;5041134;28;20400;-73
2023/11/06 09:29:59;;;;;;;;;;;13.60;99.90;;;;;;5028575;28;19917;-73
2023/11/06 09:32:25;;;;;;;;;;;13.60;99.90;;;;;;5033929;28;20011;-78
2023/11/06 09:34:51;;;;;;;;;;;13.80;99.90;;;;;;5028264;28;19993;-77
2023/11/06 09:37:16;;;;;;;;;;;13.90;99.90;;;;;;5029153;28;19921;-77
2023/11/06 09:39:43;;;;;;;;;;;14.10;99.90;;;;;;5028577;28;19960;-72
2023/11/06 09:42:11;;;;;;;;;;;14.10;99.90;;;;;;5035634;28;19921;-77
2023/11/06 09:44:38;;;;;;;;;;;13.90;99.90;;;;;;5033231;28;20130;-76
2023/11/06 09:47:07;;;;;;;;;;;13.80;99.90;;;;;;5037500;28;19923;-73
2023/11/06 09:49:43;;;;;;;;;;;13.70;99.90;;;;;;5031061;28;20051;-76
2023/11/06 09:52:08;;;;;;;;;;;13.70;99.90;;;;;;5030943;28;19913;-76
2023/11/06 09:54:36;;;;;;;;;;;13.50;99.90;;;;;;5035183;28;19928;-73
2023/11/06 09:57:03;;;;;;;;;;;13.40;99.90;;;;;;5029254;28;20299;-76
2023/11/06 09:59:28;;;;;;;;;;;13.50;99.90;;;;;;5029611;28;20430;-80
2023/11/06 10:01:54;;;;;;;;;;;13.50;99.90;;;;;;5039334;28;19948;-78
2023/11/06 10:04:21;;;;;;;;;;;13.30;99.90;;;;;;5050404;28;19916;-75
2023/11/06 10:06:49;;;;;;;;;;;13.30;99.90;;;;;;5036737;28;19921;-73
2023/11/06 10:09:27;;;;;;;;;;;13.50;99.90;;;;;;5030218;28;20027;-73
2023/11/06 10:11:57;;;;;;;;;;;13.80;99.90;;;;;;5028152;28;19921;-73
2023/11/06 10:14:34;;;;;;;;;;;14.00;99.90;;;;;;5030699;28;19921;-77
2023/11/06 10:17:03;;;;;;;;;;;14.30;99.90;;;;;;5025136;28;20403;-77
2023/11/06 10:19:29;;;;;;;;;;;14.80;99.90;;;;;;5047183;28;19928;-74
2023/11/06 10:21:55;;;;;;;;;;;15.20;99.90;;;;;;5046722;28;19916;-74
2023/11/06 10:24:20;;;;;;;;;;;15.10;99.90;;;;;;5051439;28;19963;-74
2023/11/06 10:26:46;;;;;;;;;;;14.80;99.90;;;;;;5046196;28;19909;-78
2023/11/06 10:29:12;;;;;;;;;;;14.00;99.90;;;;;;5033568;28;19953;-78
2023/11/06 10:31:44;;;;;;;;;;;13.50;99.90;;;;;;5032093;28;19919;-77
2023/11/06 10:34:28;;;;;;;;;;;13.40;99.90;;;;;;5040567;28;19921;-73
2023/11/06 10:37:09;;;;;;;;;;;13.20;99.90;;;;;;5029095;28;20572;-73
2023/11/06 10:39:37;;;;;;;;;;;13.20;99.90;;;;;;5025165;28;20707;-74
2023/11/06 10:42:04;;;;;;;;;;;13.50;99.90;;;;;;5030354;28;20379;-77
2023/11/06 10:44:34;;;;;;;;;;;13.80;99.90;;;;;;5030670;28;19914;-77
2023/11/06 10:47:05;;;;;;;;;;;14.00;99.90;;;;;;5048905;28;20287;-74
2023/11/06 10:49:33;;;;;;;;;;;14.20;99.90;;;;;;5026273;28;19971;-74
2023/11/06 10:51:59;;;;;;;;;;;14.50;99.90;;;;;;5030201;28;20394;-77
2023/11/06 10:54:26;;;;;;;;;;;14.90;99.90;;;;;;5030106;28;19917;-77
2023/11/06 10:56:56;;;;;;;;;;;15.30;99.90;;;;;;5027217;28;19920;-74
2023/11/06 10:59:25;;;;;;;;;;;15.80;99.90;;;;;;5026923;28;19925;-73
2023/11/06 11:01:52;;;;;;;;;;;16.10;99.90;;;;;;5046290;28;19920;-78
2023/11/06 11:04:18;;;;;;;;;;;16.30;99.90;;;;;;5045720;28;20261;-73
2023/11/06 11:06:44;;;;;;;;;;;16.30;99.90;;;;;;5032122;28;20007;-77
2023/11/06 11:09:11;;;;;;;;;;;16.40;99.90;;;;;;5033359;28;19929;-77
2023/11/06 11:11:38;;;;;;;;;;;16.50;99.90;;;;;;5032422;28;19932;-77
2023/11/06 11:14:06;;;;;;;;;;;16.50;99.90;;;;;;5033802;28;19964;-74
2023/11/06 11:16:36;;;;;;;;;;;16.60;99.90;;;;;;5032517;28;20370;-74
2023/11/06 11:19:17;;;;;;;;;;;16.30;99.90;;;;;;5032437;28;19913;-77
2023/11/06 11:22:04;;;;;;;;;;;15.20;99.90;;;;;;5034109;28;19917;-77
2023/11/06 11:24:39;;;;;;;;;;;14.30;99.90;;;;;;5032012;28;19917;-74
2023/11/06 11:27:07;;;;;;;;;;;13.50;99.90;;;;;;5032579;28;19913;-73
2023/11/06 11:29:51;;;;;;;;;;;12.50;99.90;;;;;;5041939;28;19916;-74
2023/11/06 11:32:16;;;;;;;;;;;12.00;99.90;;;;;;5033459;28;19913;-77
2023/11/06 11:34:42;;;;;;;;;;;11.50;99.90;;;;;;5032935;28;19913;-78
2023/11/06 11:37:26;;;;;;;;;;;11.50;99.90;;;;;;5032755;28;19920;-80
2023/11/06 11:39:51;;;;;;;;;;;11.60;99.90;;;;;;5027492;28;20375;-74
2023/11/06 11:42:17;;;;;;;;;;;11.70;99.90;;;;;;5032375;28;19923;-78
2023/11/06 11:44:50;;;;;;;;;;;11.80;99.90;;;;;;5028329;28;19921;-74
2023/11/06 11:47:16;;;;;;;;;;;12.00;99.90;;;;;;5024160;28;19917;-78
2023/11/06 11:49:45;;;;;;;;;;;12.40;99.90;;;;;;5028514;28;19921;-73
2023/11/06 11:52:15;;;;;;;;;;;12.50;99.90;;;;;;5032534;28;20407;-74
2023/11/06 11:54:40;;;;;;;;;;;13.10;99.90;;;;;;5030929;28;19920;-80
2023/11/06 11:57:07;;;;;;;;;;;13.20;99.90;;;;;;5024886;28;19923;-75
2023/11/06 11:59:40;;;;;;;;;;;13.50;99.90;;;;;;5030237;28;20240;-79
2023/11/06 12:02:23;;;;;;;;;;;13.80;99.90;;;;;;5028162;28;20018;-80
2023/11/06 12:04:48;;;;;;;;;;;14.20;99.90;;;;;;5032938;28;19956;-74
2023/11/06 12:07:16;;;;;;;;;;;14.60;99.90;;;;;;5030084;28;20116;-74
2023/11/06 12:09:46;;;;;;;;;;;14.80;99.90;;;;;;5028428;28;20360;-78
2023/11/06 12:12:16;;;;;;;;;;;14.40;99.90;;;;;;5030279;28;20408;-80
2023/11/06 12:14:42;;;;;;;;;;;13.80;99.90;;;;;;5043016;28;20450;-75
2023/11/06 12:17:07;;;;;;;;;;;13.30;99.90;;;;;;5031668;28;19913;-74
2023/11/06 12:19:39;;;;;;;;;;;13.00;99.90;;;;;;5029498;28;19928;-78
2023/11/06 12:22:05;;;;;;;;;;;12.90;99.90;;;;;;5036514;28;20315;-79
2023/11/06 12:24:31;;;;;;;;;;;13.00;99.90;;;;;;5037632;28;19913;-79
2023/11/06 12:26:58;;;;;;;;;;;12.90;99.90;;;;;;5043497;28;19924;-79
2023/11/06 12:29:29;;;;;;;;;;;12.90;99.90;;;;;;5031634;28;19917;-78
2023/11/06 12:31:56;;;;;;;;;;;13.00;99.90;;;;;;5050984;28;20276;-79
2023/11/06 12:34:22;;;;;;;;;;;12.90;99.90;;;;;;5045519;28;20008;-79
2023/11/06 12:36:47;;;;;;;;;;;12.80;99.90;;;;;;5031925;28;20268;-79
2023/11/06 12:39:36;;;;;;;;;;;12.80;99.90;;;;;;5030999;28;20035;-74
2023/11/06 12:42:03;;;;;;;;;;;12.70;99.90;;;;;;5014856;28;20301;-74
2023/11/06 12:44:39;;;;;;;;;;;12.80;99.90;;;;;;5005473;28;20031;-75
2023/11/06 12:47:09;;;;;;;;;;;12.90;99.90;;;;;;5005943;28;20354;-73
2023/11/06 12:49:51;;;;;;;;;;;13.10;99.90;;;;;;5018920;28;20035;-74
2023/11/06 12:52:20;;;;;;;;;;;13.90;99.90;;;;;;5024593;28;19921;-78
2023/11/06 12:54:49;;;;;;;;;;;14.40;99.90;;;;;;5005178;28;20411;-78
2023/11/06 12:57:18;;;;;;;;;;;14.80;99.90;;;;;;5004791;28;20348;-73
2023/11/06 12:59:47;;;;;;;;;;;15.00;99.90;;;;;;5004163;28;20285;-73
2023/11/06 13:02:12;;;;;;;;;;;15.20;99.90;;;;;;5010281;28;19924;-74
2023/11/06 13:04:38;;;;;;;;;;;15.20;99.90;;;;;;5003574;28;19921;-78
2023/11/06 13:07:04;;;;;;;;;;;15.10;99.90;;;;;;5007988;28;19917;-78
2023/11/06 13:09:31;;;;;;;;;;;15.20;99.90;;;;;;5002404;28;20224;-75
2023/11/06 13:11:56;;;;;;;;;;;15.30;99.90;;;;;;5008471;28;19947;-74
2023/11/06 13:14:22;;;;;;;;;;;15.30;99.90;;;;;;5005538;28;20327;-78
2023/11/06 13:16:48;;;;;;;;;;;14.90;99.90;;;;;;5004351;28;19917;-80
2023/11/06 13:19:14;;;;;;;;;;;15.00;99.90;;;;;;5003646;28;19917;-79
2023/11/06 13:21:40;;;;;;;;;;;15.30;99.90;;;;;;5000914;28;20663;-79
2023/11/06 13:24:07;;;;;;;;;;;15.60;99.90;;;;;;5005095;28;19948;-75
2023/11/06 13:26:35;;;;;;;;;;;15.60;99.90;;;;;;5004477;28;19917;-74
2023/11/06 13:29:00;;;;;;;;;;;15.10;99.90;;;;;;4999579;28;20321;-80
2023/11/06 13:31:27;;;;;;;;;;;14.80;99.90;;;;;;5003822;28;19917;-79
2023/11/06 13:33:53;;;;;;;;;;;14.70;99.90;;;;;;5004296;28;19921;-79
2023/11/06 13:36:22;;;;;;;;;;;15.20;99.90;;;;;;5003738;28;19952;-74
2023/11/06 13:38:48;;;;;;;;;;;15.40;99.90;;;;;;5003871;28;19924;-74
2023/11/06 13:41:21;;;;;;;;;;;15.00;99.90;;;;;;5003228;28;20319;-78
2023/11/06 13:43:46;;;;;;;;;;;15.00;99.90;;;;;;5008087;28;19987;-78
2023/11/06 13:46:12;;;;;;;;;;;15.00;99.90;;;;;;5004208;28;19917;-77
2023/11/06 13:48:39;;;;;;;;;;;15.00;99.90;;;;;;5003283;28;19921;-78
2023/11/06 13:51:13;;;;;;;;;;;15.20;99.90;;;;;;5003124;28;20250;-74
2023/11/06 13:53:47;;;;;;;;;;;15.70;99.90;;;;;;5002869;28;20435;-75
2023/11/06 13:58:47;;;;;;;;;;;15.20;99.90;;;;;;5014801;28;19924;-78
2023/11/06 14:01:13;;;;;;;;;;;14.90;99.90;;;;;;5007016;28;20220;-74
2023/11/06 14:03:47;;;;;;;;;;;15.00;99.90;;;;;;5010002;28;20007;-74
2023/11/06 14:06:16;;;;;;;;;;;15.00;99.90;;;;;;5003687;28;20235;-74
2023/11/06 14:08:42;;;;;;;;;;;14.70;99.90;;;;;;4998693;28;20422;-79
2023/11/06 14:11:08;;;;;;;;;;;14.80;99.90;;;;;;5003457;28;19977;-74
2023/11/06 14:13:34;;;;;;;;;;;14.90;99.90;;;;;;5003381;28;19917;-74
2023/11/06 14:15:59;;;;;;;;;;;15.30;99.90;;;;;;5002956;28;19924;-78